createdAt,value
2019-05-06T00:01:55.717Z,102105.38
2019-05-06T00:04:27.324Z,102102.81
2019-05-06T00:06:59.090Z,102098.85
2019-05-06T00:09:30.643Z,102100.17
2019-05-06T00:12:04.012Z,102098.94
2019-05-06T00:14:35.667Z,102099.38
2019-05-06T00:17:07.440Z,102097.23
2019-05-06T00:19:38.961Z,102092.50
2019-05-06T00:22:10.583Z,102097.77
2019-05-06T00:24:49.800Z,102093.25
2019-05-06T00:27:34.199Z,102093.05
2019-05-06T00:30:06.891Z,102087.56
2019-05-06T00:32:38.918Z,102086.11
2019-05-06T00:35:10.392Z,102084.45
2019-05-06T00:37:44.136Z,102084.23
2019-05-06T00:40:24.414Z,102080.94
2019-05-06T00:43:04.672Z,102079.39
2019-05-06T00:45:35.929Z,102089.55
2019-05-06T00:48:07.827Z,102082.62
2019-05-06T00:50:39.583Z,102072.80
2019-05-06T00:53:14.158Z,102078.28
2019-05-06T00:55:45.929Z,102075.17
2019-05-06T00:58:17.464Z,102075.05
2019-05-06T01:00:49.144Z,102074.64
2019-05-06T01:03:20.627Z,102073.58
2019-05-06T01:05:54.261Z,102072.73
2019-05-06T01:08:25.569Z,102067.11
2019-05-06T01:10:57.200Z,102065.76
2019-05-06T01:13:54.487Z,102065.38
2019-05-06T01:16:26.387Z,102069.63
2019-05-06T01:18:57.920Z,102068.83
2019-05-06T01:21:29.886Z,102071.66
2019-05-06T01:24:03.790Z,102071.31
2019-05-06T01:26:34.962Z,102061.56
2019-05-06T01:29:06.513Z,102061.72
2019-05-06T01:31:42.923Z,102058.78
2019-05-06T01:34:13.655Z,102055.06
2019-05-06T01:36:44.706Z,102062.42
2019-05-06T01:39:44.367Z,102053.81
2019-05-06T01:42:31.211Z,102054.88
2019-05-06T01:45:04.750Z,102049.40
2019-05-06T01:47:36.094Z,102040.61
2019-05-06T01:50:09.489Z,102037.13
2019-05-06T01:52:41.329Z,102039.38
2019-05-06T01:55:14.182Z,102040.56
2019-05-06T01:57:45.880Z,102045.42
2019-05-06T02:00:19.390Z,102041.59
2019-05-06T02:02:51.077Z,102045.95
2019-05-06T02:05:24.238Z,102044.25
2019-05-06T02:07:56.165Z,102041.48
2019-05-06T02:10:27.694Z,102041.44
2019-05-06T02:12:59.510Z,102044.83
2019-05-06T02:15:31.087Z,102038.19
2019-05-06T02:18:04.123Z,102031.34
2019-05-06T02:20:37.653Z,102033.20
2019-05-06T02:23:14.784Z,102043.34
2019-05-06T02:25:51.212Z,102038.56
2019-05-06T02:28:23.647Z,102039.55
2019-05-06T02:31:14.793Z,102044.05
2019-05-06T02:33:56.988Z,102036.52
2019-05-06T02:36:50.993Z,102039.56
2019-05-06T02:39:23.493Z,102040.58
2019-05-06T02:41:55.275Z,102040.29
2019-05-06T02:44:26.830Z,102040.71
2019-05-06T02:47:07.358Z,102038.67
2019-05-06T02:49:44.281Z,102039.27
2019-05-06T02:52:15.993Z,102040.45
2019-05-06T02:54:47.839Z,102036.16
2019-05-06T02:57:19.372Z,102034.33
2019-05-06T02:59:54.840Z,102038.80
2019-05-06T03:02:38.674Z,102028.66
2019-05-06T03:04:57.756Z,102030.36
2019-05-06T03:07:32.627Z,102028.22
2019-05-06T03:10:04.201Z,102032.83
2019-05-06T03:12:35.982Z,102028.28
2019-05-06T03:15:07.547Z,102036.42
2019-05-06T03:17:39.118Z,102030.36
2019-05-06T03:20:16.001Z,102038.09
2019-05-06T03:22:58.421Z,102030.14
2019-05-06T03:25:33.600Z,102030.58
2019-05-06T03:28:05.387Z,102030.59
2019-05-06T03:30:36.939Z,102028.86
2019-05-06T03:33:37.575Z,102030.14
2019-05-06T03:35:56.480Z,102028.84
2019-05-06T03:38:14.893Z,102025.38
2019-05-06T03:40:46.446Z,102028.52
2019-05-06T03:43:18.016Z,102031.10
2019-05-06T03:46:26.643Z,102021.31
2019-05-06T03:49:03.664Z,102023.98
2019-05-06T03:51:36.567Z,102022.65
2019-05-06T03:54:08.193Z,102019.17
2019-05-06T03:56:43.160Z,102022.84
2019-05-06T03:59:16.205Z,102013.22
2019-05-06T04:01:48.083Z,102018.04
2019-05-06T04:04:19.568Z,102014.19
2019-05-06T04:06:53.700Z,102005.36
2019-05-06T04:09:24.763Z,102008.93
2019-05-06T04:11:57.470Z,102007.52
2019-05-06T04:14:29.700Z,102002.91
2019-05-06T04:17:23.654Z,102003.92
2019-05-06T04:20:04.338Z,102010.67
2019-05-06T04:22:58.811Z,102004.92
2019-05-06T04:25:46.080Z,102004.49
2019-05-06T04:28:20.019Z,102005.55
2019-05-06T04:30:54.843Z,102008.20
2019-05-06T04:33:28.034Z,102004.27
2019-05-06T04:36:03.389Z,102000.70
2019-05-06T04:38:34.087Z,101997.38
2019-05-06T04:41:05.812Z,101997.70
2019-05-06T04:43:37.898Z,102003.48
2019-05-06T04:46:16.496Z,102002.56
2019-05-06T04:48:45.101Z,102001.83
2019-05-06T04:51:17.067Z,102002.27
2019-05-06T04:53:49.699Z,102002.73
2019-05-06T04:56:23.666Z,102000.52
2019-05-06T04:58:54.934Z,101997.64
2019-05-06T05:01:26.532Z,101997.28
2019-05-06T05:03:58.516Z,101999.06
2019-05-06T05:06:32.678Z,101993.23
2019-05-06T05:09:06.405Z,102001.12
2019-05-06T05:11:47.682Z,102002.50
2019-05-06T05:14:38.253Z,102004.73
2019-05-06T05:17:25.358Z,101998.53
2019-05-06T05:19:56.924Z,102000.77
2019-05-06T05:22:28.534Z,102001.62
2019-05-06T05:25:03.278Z,101998.06
2019-05-06T05:27:34.262Z,101994.06
2019-05-06T05:30:06.639Z,101994.83
2019-05-06T05:32:38.372Z,101993.07
2019-05-06T05:35:12.755Z,101992.27
2019-05-06T05:37:44.456Z,101990.59
2019-05-06T05:40:16.451Z,101986.13
2019-05-06T05:43:11.703Z,101982.02
2019-05-06T05:45:43.668Z,101989.55
2019-05-06T05:48:28.187Z,101986.41
2019-05-06T05:51:18.769Z,101990.78
2019-05-06T05:53:52.314Z,101992.56
2019-05-06T05:56:24.170Z,101978.38
2019-05-06T05:58:55.904Z,101976.95
2019-05-06T06:01:27.514Z,101978.42
2019-05-06T06:03:59.549Z,101975.20
2019-05-06T06:06:33.015Z,101982.23
2019-05-06T06:09:06.046Z,101984.54
2019-05-06T06:11:58.345Z,101981.08
2019-05-06T06:14:48.803Z,101990.70
2019-05-06T06:17:39.008Z,101991.88
2019-05-06T06:20:28.562Z,101994.69
2019-05-06T06:23:05.251Z,101989.17
2019-05-06T06:25:37.365Z,101986.19
2019-05-06T06:28:08.959Z,101986.51
2019-05-06T06:30:52.009Z,101985.64
2019-05-06T06:33:23.331Z,101982.03
2019-05-06T06:36:07.421Z,101980.24
2019-05-06T06:38:58.041Z,101974.89
2019-05-06T06:41:29.765Z,101975.31
2019-05-06T06:44:04.388Z,101967.69
2019-05-06T06:46:36.007Z,101964.84
2019-05-06T06:49:08.174Z,101965.87
2019-05-06T06:51:42.303Z,101964.26
2019-05-06T06:54:13.421Z,101966.73
2019-05-06T06:57:05.546Z,101956.92
2019-05-06T06:59:31.771Z,101967.08
2019-05-06T07:02:13.344Z,101961.86
2019-05-06T07:05:24.802Z,101960.05
2019-05-06T07:07:47.600Z,101960.14
2019-05-06T07:10:37.317Z,101966.06
2019-05-06T07:13:09.016Z,101962.13
2019-05-06T07:15:42.636Z,101962.24
2019-05-06T07:18:14.061Z,101954.31
2019-05-06T07:21:05.193Z,101955.72
2019-05-06T07:23:36.779Z,101951.86
2019-05-06T07:26:12.161Z,101956.84
2019-05-06T07:28:44.076Z,101953.29
2019-05-06T07:31:22.256Z,101955.88
2019-05-06T07:33:49.012Z,101956.84
2019-05-06T07:36:22.685Z,101961.30
2019-05-06T07:38:54.188Z,101960.95
2019-05-06T07:41:36.403Z,101956.11
2019-05-06T07:44:34.835Z,101962.90
2019-05-06T07:47:27.997Z,101957.77
2019-05-06T07:50:02.241Z,101957.44
2019-05-06T07:52:32.929Z,101968.20
2019-05-06T07:55:04.559Z,101965.67
2019-05-06T07:57:36.313Z,101962.89
2019-05-06T08:00:08.662Z,101960.16
2019-05-06T08:02:40.190Z,101962.32
2019-05-06T08:05:13.249Z,101969.92
2019-05-06T08:07:44.773Z,101963.38
2019-05-06T08:10:16.563Z,101964.36
2019-05-06T08:12:48.134Z,101966.24
2019-05-06T08:15:19.747Z,101968.59
2019-05-06T08:17:52.391Z,101961.52
2019-05-06T08:20:25.947Z,101968.66
2019-05-06T08:23:09.949Z,101965.87
2019-05-06T08:25:49.860Z,101957.98
2019-05-06T08:28:22.564Z,101959.45
2019-05-06T08:30:54.502Z,101964.61
2019-05-06T08:33:27.740Z,101957.92
2019-05-06T08:36:08.962Z,101970.48
2019-05-06T08:38:54.671Z,101963.91
2019-05-06T08:41:27.747Z,101958.17
2019-05-06T08:43:59.576Z,101963.95
2019-05-06T08:46:32.688Z,101963.99
2019-05-06T08:49:04.681Z,101960.83
2019-05-06T08:51:53.114Z,101967.78
2019-05-06T08:54:36.260Z,101964.23
2019-05-06T08:57:08.082Z,101970.58
2019-05-06T08:59:42.346Z,101965.61
2019-05-06T09:02:14.179Z,101965.19
2019-05-06T09:04:45.722Z,101971.52
2019-05-06T09:07:17.324Z,101965.70
2019-05-06T09:09:49.114Z,101967.03
2019-05-06T09:12:22.341Z,101962.15
2019-05-06T09:14:54.245Z,101964.84
2019-05-06T09:17:27.922Z,101966.41
2019-05-06T09:19:59.513Z,101969.42
2019-05-06T09:22:32.746Z,101965.52
2019-05-06T09:25:04.814Z,101963.81
2019-05-06T09:28:14.004Z,101967.83
2019-05-06T09:30:49.349Z,101962.06
2019-05-06T09:33:26.077Z,101967.73
2019-05-06T09:35:57.611Z,101967.31
2019-05-06T09:38:29.209Z,101965.50
2019-05-06T09:41:04.781Z,101964.67
2019-05-06T09:43:34.264Z,101962.95
2019-05-06T09:46:06.139Z,101958.64
2019-05-06T09:48:55.875Z,101959.97
2019-05-06T09:51:27.440Z,101956.03
2019-05-06T09:54:07.546Z,101954.83
2019-05-06T09:56:50.405Z,101953.53
2019-05-06T09:59:22.045Z,101951.80
2019-05-06T10:01:53.884Z,101950.91
2019-05-06T10:04:25.453Z,101955.81
2019-05-06T10:07:00.021Z,101954.92
2019-05-06T10:09:32.618Z,101947.93
2019-05-06T10:12:04.586Z,101946.27
2019-05-06T10:14:36.154Z,101949.80
2019-05-06T10:17:07.724Z,101944.96
2019-05-06T10:19:39.773Z,101944.09
2019-05-06T10:22:12.677Z,101937.44
2019-05-06T10:24:44.496Z,101935.25
2019-05-06T10:27:16.381Z,101929.91
2019-05-06T10:29:54.169Z,101931.23
2019-05-06T10:32:43.382Z,101929.48
2019-05-06T10:35:16.086Z,101929.03
2019-05-06T10:38:42.370Z,101931.68
2019-05-06T10:41:22.205Z,101919.27
2019-05-06T10:44:38.461Z,101930.36
2019-05-06T10:47:12.034Z,101935.25
2019-05-06T10:49:44.099Z,101929.91
2019-05-06T10:52:21.908Z,101935.66
2019-05-06T10:54:53.672Z,101933.45
2019-05-06T10:57:40.368Z,101931.70
2019-05-06T11:00:12.656Z,101928.12
2019-05-06T11:02:57.181Z,101929.86
2019-05-06T11:05:28.765Z,101926.33
2019-05-06T11:08:02.239Z,101921.34
2019-05-06T11:10:40.835Z,101923.58
2019-05-06T11:13:07.238Z,101926.19
2019-05-06T11:15:39.013Z,101921.64
2019-05-06T11:18:13.594Z,101923.28
2019-05-06T11:20:45.121Z,101915.96
2019-05-06T11:23:16.676Z,101923.83
2019-05-06T11:25:48.313Z,101921.50
2019-05-06T11:28:38.396Z,101923.30
2019-05-06T11:31:22.956Z,101917.78
2019-05-06T11:34:21.986Z,101913.99
2019-05-06T11:37:14.802Z,101918.78
2019-05-06T11:39:46.355Z,101910.41
2019-05-06T11:42:31.857Z,101916.00
2019-05-06T11:44:53.121Z,101913.38
2019-05-06T11:47:24.954Z,101908.77
2019-05-06T11:49:58.158Z,101905.90
2019-05-06T11:52:29.862Z,101908.77
2019-05-06T11:55:02.229Z,101914.17
2019-05-06T11:57:34.345Z,101916.70
2019-05-06T12:00:07.500Z,101921.23
2019-05-06T12:02:42.112Z,101913.64
2019-05-06T12:05:14.979Z,101910.95
2019-05-06T12:08:01.089Z,101905.75
2019-05-06T12:10:22.328Z,101905.88
2019-05-06T12:12:53.938Z,101912.96
2019-05-06T12:15:25.489Z,101903.25
2019-05-06T12:17:57.165Z,101903.34
2019-05-06T12:20:28.681Z,101915.30
2019-05-06T12:23:03.902Z,101894.44
2019-05-06T12:25:33.762Z,101901.02
2019-05-06T12:28:05.531Z,101907.67
2019-05-06T12:30:37.077Z,101908.22
2019-05-06T12:33:36.831Z,101903.31
2019-05-06T12:36:19.116Z,101902.01
2019-05-06T12:39:14.864Z,101911.30
2019-05-06T12:42:15.007Z,101911.23
2019-05-06T12:45:04.695Z,101914.39
2019-05-06T12:47:50.157Z,101913.06
2019-05-06T12:50:22.783Z,101912.63
2019-05-06T12:52:57.727Z,101916.95
2019-05-06T12:55:28.763Z,101916.55
2019-05-06T12:58:00.325Z,101915.69
2019-05-06T13:00:33.842Z,101919.22
2019-05-06T13:03:06.005Z,101920.96
2019-05-06T13:05:37.792Z,101924.59
2019-05-06T13:08:09.695Z,101917.92
2019-05-06T13:10:42.132Z,101921.44
2019-05-06T13:13:14.049Z,101916.16
2019-05-06T13:15:45.655Z,101921.48
2019-05-06T13:18:17.493Z,101913.98
2019-05-06T13:20:51.755Z,101918.82
2019-05-06T13:23:41.651Z,101920.03
2019-05-06T13:26:13.624Z,101908.44
2019-05-06T13:28:50.193Z,101908.25
2019-05-06T13:31:25.461Z,101917.14
2019-05-06T13:33:58.570Z,101907.48
2019-05-06T13:36:33.123Z,101918.86
2019-05-06T13:39:14.061Z,101931.56
2019-05-06T13:41:41.972Z,101927.48
2019-05-06T13:44:15.050Z,101924.77
2019-05-06T13:46:53.376Z,101926.66
2019-05-06T13:49:46.031Z,101926.36
2019-05-06T13:52:24.606Z,101928.88
2019-05-06T13:54:57.222Z,101921.44
2019-05-06T13:57:29.319Z,101925.27
2019-05-06T14:00:03.068Z,101921.28
2019-05-06T14:02:45.575Z,101924.41
2019-05-06T14:05:18.805Z,101927.55
2019-05-06T14:07:52.806Z,101927.63
2019-05-06T14:10:23.690Z,101927.02
2019-05-06T14:12:55.696Z,101930.34
2019-05-06T14:15:27.620Z,101924.63
2019-05-06T14:17:59.154Z,101926.39
2019-05-06T14:20:30.926Z,101924.27
2019-05-06T14:23:02.651Z,101934.45
2019-05-06T14:25:56.243Z,101935.00
2019-05-06T14:28:37.736Z,101932.48
2019-05-06T14:31:14.785Z,101922.36
2019-05-06T14:33:46.314Z,101920.55
2019-05-06T14:36:17.907Z,101920.12
2019-05-06T14:38:49.441Z,101928.98
2019-05-06T14:41:27.080Z,101940.53
2019-05-06T14:43:57.438Z,101951.24
2019-05-06T14:46:47.842Z,101947.31
2019-05-06T14:49:22.315Z,101944.19
2019-05-06T14:51:53.791Z,101944.67
2019-05-06T14:54:25.367Z,101948.59
2019-05-06T14:57:02.704Z,101942.25
2019-05-06T14:59:34.640Z,101949.72
2019-05-06T15:02:06.427Z,101948.87
2019-05-06T15:04:38.043Z,101947.96
2019-05-06T15:07:12.767Z,101944.52
2019-05-06T15:09:55.666Z,101944.14
2019-05-06T15:12:18.742Z,101944.41
2019-05-06T15:14:52.670Z,101930.73
2019-05-06T15:17:24.109Z,101941.49
2019-05-06T15:19:55.808Z,101945.30
2019-05-06T15:22:28.760Z,101942.64
2019-05-06T15:25:02.396Z,101934.86
2019-05-06T15:27:34.269Z,101944.67
2019-05-06T15:30:12.351Z,101942.16
2019-05-06T15:32:45.649Z,101946.91
2019-05-06T15:35:36.233Z,101942.38
2019-05-06T15:38:13.946Z,101945.52
2019-05-06T15:40:45.547Z,101947.70
2019-05-06T15:43:18.657Z,101952.14
2019-05-06T15:45:52.602Z,101955.28
2019-05-06T15:48:24.481Z,101953.05
2019-05-06T15:50:56.316Z,101952.99
2019-05-06T15:53:27.914Z,101956.81
2019-05-06T15:55:59.481Z,101966.41
2019-05-06T15:58:34.892Z,101960.27
2019-05-06T16:01:06.902Z,101959.63
2019-05-06T16:03:38.759Z,101959.94
2019-05-06T16:06:12.430Z,101960.34
2019-05-06T16:08:44.521Z,101959.03
2019-05-06T16:11:16.749Z,101966.41
2019-05-06T16:13:48.952Z,101963.34
2019-05-06T16:16:22.824Z,101955.65
2019-05-06T16:18:55.201Z,101959.78
2019-05-06T16:21:26.945Z,101952.94
2019-05-06T16:24:04.501Z,101949.97
2019-05-06T16:26:36.675Z,101955.70
2019-05-06T16:29:08.827Z,101949.23
2019-05-06T16:31:43.113Z,101952.77
2019-05-06T16:34:15.642Z,101950.06
2019-05-06T16:36:47.450Z,101955.91
2019-05-06T16:39:22.994Z,101951.50
2019-05-06T16:41:55.563Z,101952.72
2019-05-06T16:44:28.217Z,101953.62
2019-05-06T16:47:00.086Z,101953.69
2019-05-06T16:49:33.594Z,101943.98
2019-05-06T16:52:05.643Z,101949.63
2019-05-06T16:54:37.501Z,101946.14
2019-05-06T16:57:19.726Z,101947.77
2019-05-06T16:59:52.295Z,101949.17
2019-05-06T17:02:29.454Z,101944.63
2019-05-06T17:05:26.477Z,101951.40
2019-05-06T17:07:59.447Z,101949.02
2019-05-06T17:10:32.669Z,101943.94
2019-05-06T17:13:04.997Z,101952.28
2019-05-06T17:15:36.627Z,101943.59
2019-05-06T17:18:08.394Z,101944.91
2019-05-06T17:20:40.112Z,101933.75
2019-05-06T17:23:13.358Z,101932.36
2019-05-06T17:25:44.902Z,101935.56
2019-05-06T17:28:23.847Z,101936.49
2019-05-06T17:31:03.607Z,101938.42
2019-05-06T17:33:37.841Z,101937.31
2019-05-06T17:36:12.711Z,101938.31
2019-05-06T17:38:49.054Z,101940.06
2019-05-06T17:41:23.758Z,101943.94
2019-05-06T17:43:56.321Z,101944.88
2019-05-06T17:46:29.885Z,101942.67
2019-05-06T17:49:05.085Z,101942.66
2019-05-06T17:51:43.062Z,101944.88
2019-05-06T17:54:14.827Z,101948.11
2019-05-06T17:56:46.469Z,101944.98
2019-05-06T17:59:18.421Z,101943.97
2019-05-06T18:01:53.724Z,101939.13
2019-05-06T18:04:25.323Z,101938.67
2019-05-06T18:06:57.402Z,101932.89
2019-05-06T18:09:29.260Z,101944.62
2019-05-06T18:12:03.067Z,101946.90
2019-05-06T18:14:34.472Z,101942.55
2019-05-06T18:17:06.689Z,101947.47
2019-05-06T18:19:38.577Z,101950.59
2019-05-06T18:22:10.339Z,101945.33
2019-05-06T18:24:42.065Z,101947.14
2019-05-06T18:27:14.047Z,101945.34
2019-05-06T18:29:45.977Z,101944.02
2019-05-06T18:32:17.696Z,101943.66
2019-05-06T18:34:49.634Z,101949.74
2019-05-06T18:37:22.823Z,101945.33
2019-05-06T18:39:55.454Z,101950.69
2019-05-06T18:42:27.450Z,101950.12
2019-05-06T18:44:59.516Z,101955.80
2019-05-06T18:47:33.101Z,101951.87
2019-05-06T18:50:07.463Z,101949.70
2019-05-06T18:52:39.785Z,101952.24
2019-05-06T18:55:12.552Z,101951.52
2019-05-06T18:57:44.568Z,101953.89
2019-05-06T19:00:17.337Z,101952.46
2019-05-06T19:02:49.115Z,101953.41
2019-05-06T19:05:27.068Z,101952.36
2019-05-06T19:07:59.382Z,101947.55
2019-05-06T19:10:33.319Z,101956.74
2019-05-06T19:13:08.290Z,101955.00
2019-05-06T19:15:38.849Z,101964.63
2019-05-06T19:18:12.812Z,101962.46
2019-05-06T19:20:45.246Z,101965.13
2019-05-06T19:23:17.031Z,101967.42
2019-05-06T19:25:49.422Z,101974.94
2019-05-06T19:28:21.979Z,101976.14
2019-05-06T19:30:54.363Z,101974.80
2019-05-06T19:33:27.000Z,101977.47
2019-05-06T19:35:58.716Z,101977.52
2019-05-06T19:38:33.533Z,101976.63
2019-05-06T19:41:06.033Z,101974.02
2019-05-06T19:43:41.797Z,101974.95
2019-05-06T19:46:13.944Z,101975.04
2019-05-06T19:48:45.745Z,101978.59
2019-05-06T19:51:17.394Z,101982.81
2019-05-06T19:53:49.629Z,101988.27
2019-05-06T19:56:23.320Z,101988.27
2019-05-06T19:58:56.648Z,101987.02
2019-05-06T20:01:28.452Z,101994.61
2019-05-06T20:04:02.293Z,101997.34
2019-05-06T20:06:40.026Z,101995.58
2019-05-06T20:09:46.664Z,101993.35
2019-05-06T20:12:28.548Z,101996.44
2019-05-06T20:15:19.260Z,101996.91
2019-05-06T20:17:52.078Z,101994.28
2019-05-06T20:20:24.303Z,101989.45
2019-05-06T20:22:57.809Z,101987.29
2019-05-06T20:25:29.529Z,101990.36
2019-05-06T20:28:02.351Z,101983.72
2019-05-06T20:30:34.610Z,101990.30
2019-05-06T20:33:06.841Z,101982.81
2019-05-06T20:35:38.499Z,101979.77
2019-05-06T20:38:12.292Z,101980.61
2019-05-06T20:40:44.360Z,101977.54
2019-05-06T20:43:23.075Z,101973.47
2019-05-06T20:45:52.289Z,101971.64
2019-05-06T20:48:24.128Z,101970.95
2019-05-06T20:50:56.047Z,101970.67
2019-05-06T20:53:28.177Z,101965.45
2019-05-06T20:56:02.990Z,101968.09
2019-05-06T20:58:35.154Z,101967.10
2019-05-06T21:01:06.823Z,101963.23
2019-05-06T21:03:39.283Z,101971.78
2019-05-06T21:06:13.096Z,101961.20
2019-05-06T21:08:44.710Z,101969.83
2019-05-06T21:11:26.514Z,101967.14
2019-05-06T21:13:49.650Z,101969.02
2019-05-06T21:16:22.479Z,101961.80
2019-05-06T21:18:54.799Z,101957.81
2019-05-06T21:21:26.684Z,101966.92
2019-05-06T21:23:58.566Z,101962.88
2019-05-06T21:26:32.876Z,101964.05
2019-05-06T21:29:03.910Z,101970.32
2019-05-06T21:31:36.322Z,101958.95
2019-05-06T21:34:08.194Z,101959.28
2019-05-06T21:36:42.066Z,101960.78
2019-05-06T21:39:13.400Z,101962.50
2019-05-06T21:41:46.018Z,101959.98
2019-05-06T21:44:17.620Z,101955.34
2019-05-06T21:46:49.265Z,101950.90
2019-05-06T21:49:22.918Z,101960.13
2019-05-06T21:51:55.564Z,101948.23
2019-05-06T21:54:27.223Z,101953.13
2019-05-06T21:56:58.833Z,101950.51
2019-05-06T21:59:30.505Z,101955.89
2019-05-06T22:02:03.197Z,101952.02
2019-05-06T22:04:35.057Z,101956.48
2019-05-06T22:07:07.092Z,101952.94
2019-05-06T22:09:38.664Z,101955.13
2019-05-06T22:12:10.191Z,101950.20
2019-05-06T22:14:42.319Z,101943.14
2019-05-06T22:17:14.356Z,101943.48
2019-05-06T22:19:47.000Z,101943.50
2019-05-06T22:22:21.253Z,101940.05
2019-05-06T22:24:57.580Z,101943.99
2019-05-06T22:27:29.832Z,101941.73
2019-05-06T22:30:03.235Z,101938.22
2019-05-06T22:32:45.999Z,101940.01
2019-05-06T22:35:18.380Z,101935.93
2019-05-06T22:37:52.745Z,101935.11
2019-05-06T22:40:26.842Z,101930.34
2019-05-06T22:42:58.433Z,101929.03
2019-05-06T22:45:30.115Z,101926.92
2019-05-06T22:48:02.130Z,101927.50
2019-05-06T22:50:35.054Z,101925.27
2019-05-06T22:53:06.630Z,101923.05
2019-05-06T22:55:42.675Z,101919.16
2019-05-06T22:58:13.912Z,101926.20
2019-05-06T23:00:50.364Z,101926.17
2019-05-06T23:03:23.884Z,101927.80
2019-05-06T23:05:55.476Z,101925.16
2019-05-06T23:08:27.155Z,101928.05
2019-05-06T23:10:58.725Z,101925.78
2019-05-06T23:13:30.606Z,101927.53
2019-05-06T23:16:02.317Z,101928.00
2019-05-06T23:18:33.816Z,101924.23
2019-05-06T23:21:05.639Z,101933.48
2019-05-06T23:23:37.158Z,101930.86
2019-05-06T23:26:22.707Z,101929.13
2019-05-06T23:28:53.818Z,101927.29
2019-05-06T23:31:27.553Z,101923.16
2019-05-06T23:33:59.075Z,101930.25
2019-05-06T23:37:25.517Z,101924.66
2019-05-06T23:40:52.182Z,101918.15
2019-05-06T23:44:17.807Z,101921.23
2019-05-06T23:47:44.298Z,101920.30
2019-05-06T23:51:12.724Z,101914.09
2019-05-06T23:54:38.093Z,101911.05
2019-05-06T23:57:08.760Z,101913.59
2019-05-06T23:59:42.964Z,101906.78
